createdAt,value
2023-03-21T00:00:57.481Z,9.30
2023-03-21T00:03:26.303Z,9.77
2023-03-21T00:05:54.124Z,8.90
2023-03-21T00:10:58.232Z,7.60
2023-03-21T00:13:28.386Z,9.35
2023-03-21T00:16:21.392Z,9.02
2023-03-21T00:18:52.607Z,7.75
2023-03-21T00:21:41.050Z,8.10
2023-03-21T00:24:09.500Z,8.18
2023-03-21T00:26:38.399Z,9.25
2023-03-21T00:29:06.376Z,10.70
2023-03-21T00:34:02.093Z,10.48
2023-03-21T00:36:32.161Z,9.70
2023-03-21T00:39:01.083Z,12.27
2023-03-21T00:41:41.397Z,11.18
2023-03-21T00:44:11.852Z,11.15
2023-03-21T00:46:48.980Z,10.88
2023-03-21T00:49:21.017Z,11.38
2023-03-21T00:51:51.525Z,10.20
2023-03-21T00:54:19.828Z,11.57
2023-03-21T00:56:47.534Z,11.43
2023-03-21T00:59:15.018Z,12.27
2023-03-21T01:01:46.812Z,12.45
2023-03-21T01:04:16.781Z,11.98
2023-03-21T01:06:44.715Z,11.75
2023-03-21T01:09:16.750Z,11.30
2023-03-21T01:11:45.133Z,10.95
2023-03-21T01:14:22.641Z,12.82
2023-03-21T01:16:54.633Z,11.45
2023-03-21T01:19:40.939Z,11.07
2023-03-21T01:22:12.470Z,12.77
2023-03-21T01:27:20.712Z,11.48
2023-03-21T01:29:49.462Z,11.40
2023-03-21T01:32:17.117Z,10.07
2023-03-21T01:34:44.738Z,11.55
2023-03-21T01:37:12.110Z,13.48
2023-03-21T01:39:46.274Z,12.65
2023-03-21T01:42:14.596Z,13.48
2023-03-21T01:45:00.187Z,11.10
2023-03-21T01:47:36.770Z,10.30
2023-03-21T01:50:26.420Z,11.23
2023-03-21T01:53:14.725Z,12.05
2023-03-21T01:55:42.354Z,10.30
2023-03-21T01:58:20.115Z,11.70
2023-03-21T02:01:02.925Z,11.57
2023-03-21T02:03:52.450Z,11.05
2023-03-21T02:09:21.072Z,12.48
2023-03-21T02:11:49.388Z,13.27
2023-03-21T02:14:26.985Z,12.85
2023-03-21T02:17:42.181Z,12.27
2023-03-21T02:20:27.706Z,12.75
2023-03-21T02:23:05.004Z,12.73
2023-03-21T02:26:12.901Z,15.20
2023-03-21T02:29:01.672Z,12.15
2023-03-21T02:31:42.907Z,12.82
2023-03-21T02:34:41.927Z,13.43
2023-03-21T02:37:28.866Z,13.13
2023-03-21T02:40:14.584Z,12.23
2023-03-21T02:43:22.641Z,13.05
2023-03-21T02:45:57.941Z,14.63
2023-03-21T02:48:48.253Z,13.15
2023-03-21T02:51:22.932Z,14.32
2023-03-21T02:54:24.639Z,13.35
2023-03-21T02:56:51.482Z,12.60
2023-03-21T02:59:21.585Z,13.45
2023-03-21T03:01:52.824Z,15.48
2023-03-21T03:04:23.077Z,13.48
2023-03-21T03:06:56.310Z,14.13
2023-03-21T03:09:47.047Z,14.00
2023-03-21T03:12:27.964Z,13.73
2023-03-21T03:15:11.606Z,15.43
2023-03-21T03:18:14.469Z,12.50
2023-03-21T03:21:00.918Z,14.60
2023-03-21T03:24:01.439Z,14.02
2023-03-21T03:26:40.253Z,13.93
2023-03-21T03:29:12.357Z,16.10
2023-03-21T03:31:45.169Z,14.52
2023-03-21T03:34:16.965Z,16.85
2023-03-21T03:36:51.770Z,14.45
2023-03-21T03:39:19.802Z,13.15
2023-03-21T03:42:21.471Z,14.32
2023-03-21T03:44:58.559Z,13.75
2023-03-21T03:47:54.159Z,14.13
2023-03-21T03:50:41.611Z,12.75
2023-03-21T03:53:19.531Z,14.73
2023-03-21T03:55:51.837Z,14.40
2023-03-21T03:58:24.854Z,14.02
2023-03-21T04:00:57.283Z,14.52
2023-03-21T04:03:25.087Z,14.82
2023-03-21T04:05:54.242Z,12.25
2023-03-21T04:08:23.872Z,13.20
2023-03-21T04:10:55.017Z,13.30
2023-03-21T04:13:24.037Z,13.43
2023-03-21T04:16:07.910Z,14.25
2023-03-21T04:18:36.181Z,13.43
2023-03-21T04:21:10.927Z,15.15
2023-03-21T04:23:40.007Z,14.57
2023-03-21T04:26:08.535Z,13.75
2023-03-21T04:28:41.012Z,13.85
2023-03-21T04:31:34.067Z,13.65
2023-03-21T04:34:12.762Z,14.25
2023-03-21T04:36:46.421Z,15.77
2023-03-21T04:39:15.388Z,12.95
2023-03-21T04:41:46.968Z,15.43
2023-03-21T04:44:16.677Z,14.63
2023-03-21T04:46:45.086Z,15.68
2023-03-21T04:49:13.838Z,15.60
2023-03-21T04:51:46.367Z,17.48
2023-03-21T04:54:18.647Z,14.98
2023-03-21T04:56:46.305Z,14.30
2023-03-21T04:59:15.977Z,15.88
2023-03-21T05:01:44.054Z,16.40
2023-03-21T05:04:14.091Z,15.88
2023-03-21T05:06:46.074Z,17.58
2023-03-21T05:09:13.939Z,15.10
2023-03-21T05:11:41.867Z,13.55
2023-03-21T05:14:16.154Z,14.20
2023-03-21T05:16:56.293Z,13.00
2023-03-21T05:19:34.973Z,13.68
2023-03-21T05:22:06.298Z,12.45
2023-03-21T05:24:34.492Z,11.95
2023-03-21T05:27:02.955Z,12.38
2023-03-21T05:29:39.753Z,12.32
2023-03-21T05:32:08.638Z,10.07
2023-03-21T05:34:36.144Z,9.20
2023-03-21T05:37:03.743Z,8.52
2023-03-21T05:39:47.555Z,8.82
2023-03-21T05:42:22.671Z,9.15
2023-03-21T05:44:51.096Z,8.38
2023-03-21T05:47:23.394Z,8.27
2023-03-21T05:49:52.908Z,7.45
2023-03-21T05:52:21.968Z,7.97
2023-03-21T05:54:49.654Z,7.63
2023-03-21T05:57:20.469Z,7.53
2023-03-21T06:02:25.682Z,6.88
2023-03-21T06:04:57.552Z,6.88
2023-03-21T06:07:24.992Z,7.97
2023-03-21T06:09:52.485Z,7.13
2023-03-21T06:12:20.059Z,7.25
2023-03-21T06:15:11.589Z,7.30
2023-03-21T06:17:50.590Z,6.43
2023-03-21T06:20:20.721Z,6.18
2023-03-21T06:22:52.747Z,5.38
2023-03-21T06:25:20.312Z,7.82
2023-03-21T06:27:47.827Z,7.50
2023-03-21T06:30:18.049Z,6.70
2023-03-21T06:32:56.935Z,6.25
2023-03-21T06:35:24.758Z,5.82
2023-03-21T06:37:52.538Z,6.15
2023-03-21T06:40:21.814Z,7.47
2023-03-21T06:47:47.091Z,4.85
2023-03-21T06:50:31.033Z,7.30
2023-03-21T06:52:59.560Z,6.10
2023-03-21T06:55:30.024Z,5.93
2023-03-21T06:58:00.372Z,6.30
2023-03-21T07:00:28.688Z,6.00
2023-03-21T07:02:58.855Z,5.63
2023-03-21T07:05:27.136Z,5.65
2023-03-21T07:10:23.285Z,5.80
2023-03-21T07:13:01.011Z,7.35
2023-03-21T07:15:38.659Z,5.65
2023-03-21T07:18:08.486Z,5.97
2023-03-21T07:20:38.133Z,5.72
2023-03-21T07:23:05.951Z,5.20
2023-03-21T07:25:34.735Z,5.88
2023-03-21T07:28:03.210Z,5.10
2023-03-21T07:30:30.983Z,5.53
2023-03-21T07:32:58.430Z,6.53
2023-03-21T07:35:26.098Z,6.13
2023-03-21T07:37:54.068Z,5.55
2023-03-21T07:40:21.505Z,5.07
2023-03-21T07:42:50.985Z,5.25
2023-03-21T07:45:29.657Z,5.25
2023-03-21T07:48:01.300Z,5.25
2023-03-21T07:50:28.865Z,5.22
2023-03-21T07:52:56.708Z,5.30
2023-03-21T07:55:24.204Z,6.10
2023-03-21T07:57:52.625Z,6.50
2023-03-21T08:00:24.379Z,6.10
2023-03-21T08:03:00.695Z,4.55
2023-03-21T08:05:30.845Z,4.53
2023-03-21T08:07:58.322Z,5.15
2023-03-21T08:10:25.943Z,4.90
2023-03-21T08:12:53.739Z,5.22
2023-03-21T08:17:48.599Z,4.75
2023-03-21T08:20:21.395Z,4.90
2023-03-21T08:22:50.084Z,4.82
2023-03-21T08:25:19.661Z,5.43
2023-03-21T08:27:47.404Z,4.13
2023-03-21T08:30:18.470Z,3.95
2023-03-21T08:32:46.247Z,4.28
2023-03-21T08:35:16.316Z,4.90
2023-03-21T08:37:43.981Z,4.30
2023-03-21T08:40:14.416Z,4.25
2023-03-21T08:42:43.518Z,3.88
2023-03-21T08:45:12.147Z,4.28
2023-03-21T08:47:40.017Z,4.32
2023-03-21T08:52:37.366Z,3.65
2023-03-21T08:55:05.443Z,4.47
2023-03-21T08:57:33.520Z,3.25
2023-03-21T09:00:01.002Z,3.80
2023-03-21T09:02:28.554Z,3.65
2023-03-21T09:04:59.172Z,3.88
2023-03-21T09:07:28.019Z,3.92
2023-03-21T09:10:14.864Z,3.03
2023-03-21T09:12:43.102Z,4.20
2023-03-21T09:15:12.454Z,3.72
2023-03-21T09:17:44.000Z,2.65
2023-03-21T09:20:18.786Z,3.60
2023-03-21T09:22:47.878Z,3.45
2023-03-21T09:25:16.927Z,4.00
2023-03-21T09:27:46.024Z,3.53
2023-03-21T09:30:17.259Z,3.92
2023-03-21T09:32:48.757Z,3.58
2023-03-21T09:35:20.882Z,4.07
2023-03-21T09:37:50.114Z,4.05
2023-03-21T09:40:23.690Z,4.20
2023-03-21T09:43:50.326Z,3.83
2023-03-21T09:46:51.046Z,4.38
2023-03-21T09:49:23.239Z,3.92
2023-03-21T09:51:53.414Z,3.53
2023-03-21T09:54:29.103Z,4.47
2023-03-21T09:57:01.160Z,3.70
2023-03-21T09:59:40.177Z,3.05
2023-03-21T10:02:36.579Z,3.33
2023-03-21T10:05:12.158Z,4.78
2023-03-21T10:07:44.772Z,3.50
2023-03-21T10:10:18.760Z,4.18
2023-03-21T10:12:48.126Z,3.80
2023-03-21T10:15:21.112Z,4.20
2023-03-21T10:18:08.702Z,4.35
2023-03-21T10:23:13.233Z,3.40
2023-03-21T10:25:44.716Z,3.72
2023-03-21T10:28:18.774Z,3.70
2023-03-21T10:30:49.302Z,4.57
2023-03-21T10:33:21.067Z,3.67
2023-03-21T10:35:55.661Z,3.80
2023-03-21T10:38:26.605Z,4.18
2023-03-21T10:40:54.696Z,3.17
2023-03-21T10:43:28.393Z,3.72
2023-03-21T10:45:57.010Z,3.72
2023-03-21T10:48:24.973Z,3.95
2023-03-21T10:50:55.136Z,3.42
2023-03-21T10:53:29.872Z,3.80
2023-03-21T10:56:00.604Z,4.13
2023-03-21T10:58:33.448Z,3.63
2023-03-21T11:01:07.750Z,3.72
2023-03-21T11:03:43.768Z,3.65
2023-03-21T11:06:23.132Z,3.67
2023-03-21T11:08:54.730Z,3.65
2023-03-21T11:11:33.269Z,3.63
2023-03-21T11:14:07.122Z,4.07
2023-03-21T11:16:41.949Z,4.30
2023-03-21T11:19:19.338Z,4.35
2023-03-21T11:21:47.151Z,3.70
2023-03-21T11:26:48.256Z,3.90
2023-03-21T11:29:27.881Z,4.00
2023-03-21T11:32:12.097Z,4.05
2023-03-21T11:35:00.667Z,3.25
2023-03-21T11:37:33.855Z,3.42
2023-03-21T11:40:31.628Z,3.58
2023-03-21T11:43:27.103Z,3.72
2023-03-21T11:46:06.933Z,3.90
2023-03-21T11:48:40.873Z,3.42
2023-03-21T11:51:40.625Z,3.05
2023-03-21T11:54:11.588Z,3.55
2023-03-21T11:56:45.100Z,3.53
2023-03-21T11:59:31.273Z,3.10
2023-03-21T12:02:27.463Z,3.47
2023-03-21T12:04:58.400Z,3.65
2023-03-21T12:07:37.937Z,3.72
2023-03-21T12:10:17.519Z,3.65
2023-03-21T12:13:00.499Z,3.17
2023-03-21T12:15:43.112Z,3.25
2023-03-21T12:18:42.828Z,3.00
2023-03-21T12:21:18.073Z,3.40
2023-03-21T12:24:03.929Z,4.00
2023-03-21T12:27:00.040Z,3.35
2023-03-21T12:29:45.580Z,3.17
2023-03-21T12:32:39.321Z,3.55
2023-03-21T12:35:19.037Z,3.35
2023-03-21T12:37:57.774Z,2.97
2023-03-21T12:40:25.650Z,3.08
2023-03-21T12:43:12.376Z,3.05
2023-03-21T12:45:47.609Z,3.00
2023-03-21T12:48:22.454Z,2.97
2023-03-21T12:50:53.913Z,2.80
2023-03-21T12:53:59.218Z,2.45
2023-03-21T12:56:35.846Z,2.78
2023-03-21T12:59:15.420Z,2.93
2023-03-21T13:01:44.366Z,2.10
2023-03-21T13:04:32.894Z,2.40
2023-03-21T13:07:03.763Z,2.40
2023-03-21T13:09:40.052Z,2.80
2023-03-21T13:12:37.076Z,2.60
2023-03-21T13:15:28.711Z,2.40
2023-03-21T13:18:13.399Z,2.22
2023-03-21T13:20:45.050Z,2.30
2023-03-21T13:23:13.860Z,1.90
2023-03-21T13:25:50.557Z,1.98
2023-03-21T13:28:35.436Z,2.38
2023-03-21T13:31:19.835Z,1.95
2023-03-21T13:33:53.281Z,1.42
2023-03-21T13:36:28.454Z,2.30
2023-03-21T13:39:01.846Z,1.70
2023-03-21T13:41:37.250Z,1.88
2023-03-21T13:44:04.777Z,1.83
2023-03-21T13:46:54.561Z,1.75
2023-03-21T13:49:33.377Z,2.08
2023-03-21T13:52:21.135Z,1.77
2023-03-21T13:54:52.677Z,1.90
2023-03-21T13:57:42.186Z,2.05
2023-03-21T14:00:17.647Z,1.77
2023-03-21T14:03:08.414Z,1.67
2023-03-21T14:05:37.590Z,1.58
2023-03-21T14:08:15.269Z,1.40
2023-03-21T14:11:04.151Z,1.75
2023-03-21T14:13:35.062Z,1.27
2023-03-21T14:16:10.906Z,1.42
2023-03-21T14:18:53.893Z,1.60
2023-03-21T14:21:25.693Z,1.85
2023-03-21T14:24:13.887Z,1.40
2023-03-21T14:26:48.441Z,1.90
2023-03-21T14:29:31.602Z,1.50
2023-03-21T14:32:00.500Z,1.55
2023-03-21T14:34:30.056Z,1.77
2023-03-21T14:36:59.153Z,1.60
2023-03-21T14:39:32.129Z,1.60
2023-03-21T14:42:06.257Z,1.70
2023-03-21T14:44:52.807Z,1.35
2023-03-21T14:49:51.308Z,1.70
2023-03-21T14:52:33.922Z,1.70
2023-03-21T14:55:05.963Z,1.58
2023-03-21T14:57:34.430Z,1.80
2023-03-21T15:00:12.960Z,2.00
2023-03-21T15:02:43.406Z,1.77
2023-03-21T15:05:19.195Z,1.63
2023-03-21T15:07:59.054Z,1.85
2023-03-21T15:10:28.964Z,1.52
2023-03-21T15:12:59.812Z,1.60
2023-03-21T15:15:29.542Z,1.48
2023-03-21T15:18:03.070Z,2.22
2023-03-21T15:20:34.129Z,1.42
2023-03-21T15:23:06.337Z,1.70
2023-03-21T15:25:37.371Z,1.83
2023-03-21T15:28:06.563Z,2.00
2023-03-21T15:30:35.129Z,1.70
2023-03-21T15:33:09.924Z,1.63
2023-03-21T15:35:41.343Z,1.45
2023-03-21T15:38:34.484Z,1.52
2023-03-21T15:41:20.427Z,1.50
2023-03-21T15:44:11.686Z,1.70
2023-03-21T15:46:50.808Z,1.58
2023-03-21T15:49:30.032Z,1.58
2023-03-21T15:52:11.916Z,2.25
2023-03-21T15:54:50.332Z,2.35
2023-03-21T15:57:34.212Z,2.60
2023-03-21T16:00:20.180Z,2.45
2023-03-21T16:02:52.065Z,3.08
2023-03-21T16:05:28.337Z,2.88
2023-03-21T16:08:03.254Z,2.60
2023-03-21T16:10:41.052Z,1.88
2023-03-21T16:13:12.584Z,2.50
2023-03-21T16:15:48.102Z,2.60
2023-03-21T16:18:19.650Z,2.25
2023-03-21T16:20:48.096Z,2.10
2023-03-21T16:23:18.091Z,2.08
2023-03-21T16:25:47.037Z,2.55
2023-03-21T16:28:17.546Z,2.03
2023-03-21T16:30:45.665Z,2.88
2023-03-21T16:33:13.888Z,2.00
2023-03-21T16:35:42.834Z,2.05
2023-03-21T16:38:14.176Z,1.70
2023-03-21T16:40:43.855Z,2.33
2023-03-21T16:43:12.307Z,1.50
2023-03-21T16:45:40.600Z,2.03
2023-03-21T16:48:09.136Z,2.25
2023-03-21T16:50:42.429Z,1.98
2023-03-21T16:53:10.064Z,2.05
2023-03-21T16:55:42.336Z,2.10
2023-03-21T16:58:14.867Z,1.92
2023-03-21T17:00:43.551Z,2.15
2023-03-21T17:03:19.894Z,2.28
2023-03-21T17:05:47.578Z,2.00
2023-03-21T17:08:18.414Z,1.48
2023-03-21T17:10:47.067Z,2.08
2023-03-21T17:13:15.025Z,2.20
2023-03-21T17:15:42.526Z,1.60
2023-03-21T17:18:11.320Z,1.55
2023-03-21T17:20:42.565Z,1.88
2023-03-21T17:23:10.527Z,2.10
2023-03-21T17:25:38.975Z,1.77
2023-03-21T17:28:08.270Z,2.00
2023-03-21T17:30:40.747Z,2.30
2023-03-21T17:33:10.029Z,2.20
2023-03-21T17:35:37.508Z,1.95
2023-03-21T17:38:07.301Z,1.88
2023-03-21T17:40:34.868Z,1.50
2023-03-21T17:43:03.780Z,2.00
2023-03-21T17:45:31.578Z,1.90
2023-03-21T17:47:59.111Z,2.00
2023-03-21T17:50:30.958Z,2.30
2023-03-21T17:52:58.424Z,2.10
2023-03-21T17:55:26.277Z,1.83
2023-03-21T18:00:28.567Z,2.10
2023-03-21T18:02:57.418Z,1.95
2023-03-21T18:05:27.488Z,2.22
2023-03-21T18:08:10.239Z,2.75
2023-03-21T18:10:39.161Z,2.08
2023-03-21T18:13:07.235Z,2.28
2023-03-21T18:18:05.445Z,2.05
2023-03-21T18:23:21.559Z,1.88
2023-03-21T18:25:49.468Z,1.90
2023-03-21T18:33:40.706Z,2.42
2023-03-21T18:36:09.953Z,2.72
2023-03-21T18:38:38.131Z,2.40
2023-03-21T18:41:07.813Z,2.92
2023-03-21T18:46:24.682Z,2.25
2023-03-21T18:51:20.455Z,2.33
2023-03-21T18:53:48.078Z,3.08
2023-03-21T18:56:56.147Z,2.85
2023-03-21T18:59:04.859Z,3.00
2023-03-21T19:01:33.109Z,2.70
2023-03-21T19:04:23.950Z,2.80
2023-03-21T19:06:50.704Z,3.05
2023-03-21T19:09:18.815Z,2.90
2023-03-21T19:11:47.377Z,2.85
2023-03-21T19:14:17.024Z,3.13
2023-03-21T19:17:23.185Z,2.65
2023-03-21T19:19:33.898Z,3.38
2023-03-21T19:22:01.801Z,3.33
2023-03-21T19:29:25.548Z,3.10
2023-03-21T19:31:53.624Z,3.10
2023-03-21T19:34:21.233Z,3.25
2023-03-21T19:36:51.875Z,2.47
2023-03-21T19:39:22.979Z,4.07
2023-03-21T19:41:51.628Z,3.35
2023-03-21T19:44:21.961Z,2.70
2023-03-21T19:46:52.103Z,3.13
2023-03-21T19:49:22.105Z,2.92
2023-03-21T19:51:49.811Z,2.90
2023-03-21T19:54:20.078Z,2.63
2023-03-21T19:56:48.364Z,2.58
2023-03-21T19:59:17.352Z,2.60
2023-03-21T20:01:45.864Z,3.30
2023-03-21T20:04:14.908Z,3.08
2023-03-21T20:06:42.878Z,2.90
2023-03-21T20:09:49.207Z,3.03
2023-03-21T20:12:00.971Z,3.15
2023-03-21T20:14:28.653Z,3.30
2023-03-21T20:16:57.363Z,3.15
2023-03-21T20:19:25.226Z,3.83
2023-03-21T20:24:27.640Z,2.55
2023-03-21T20:26:55.840Z,3.53
2023-03-21T20:32:11.438Z,3.33
2023-03-21T20:34:39.381Z,3.08
2023-03-21T20:37:07.366Z,3.95
2023-03-21T20:39:35.561Z,3.15
2023-03-21T20:42:03.776Z,2.90
2023-03-21T20:47:19.519Z,3.72
2023-03-21T20:52:52.249Z,3.53
2023-03-21T20:55:03.216Z,3.60
2023-03-21T20:57:31.374Z,3.30
2023-03-21T20:59:59.189Z,3.45
2023-03-21T21:02:31.896Z,3.40
2023-03-21T21:05:24.710Z,2.75
2023-03-21T21:08:04.004Z,2.83
2023-03-21T21:10:33.729Z,3.22
2023-03-21T21:13:02.001Z,3.38
2023-03-21T21:15:29.382Z,3.05
2023-03-21T21:18:08.142Z,3.40
2023-03-21T21:20:37.429Z,3.20
2023-03-21T21:23:05.473Z,3.83
2023-03-21T21:25:34.328Z,3.25
2023-03-21T21:28:02.827Z,3.55
2023-03-21T21:30:32.729Z,4.28
2023-03-21T21:33:01.017Z,3.60
2023-03-21T21:35:28.714Z,3.88
2023-03-21T21:37:56.375Z,3.80
2023-03-21T21:40:24.817Z,3.50
2023-03-21T21:42:52.724Z,3.90
2023-03-21T21:45:20.255Z,4.13
2023-03-21T21:47:48.009Z,4.28
2023-03-21T21:50:15.650Z,5.15
2023-03-21T21:52:44.255Z,4.07
2023-03-21T21:55:13.354Z,4.40
2023-03-21T21:57:41.176Z,4.30
2023-03-21T22:02:42.059Z,4.45
2023-03-21T22:05:10.628Z,5.07
2023-03-21T22:07:39.274Z,4.55
2023-03-21T22:10:07.329Z,5.13
2023-03-21T22:12:35.119Z,4.60
2023-03-21T22:17:32.203Z,5.57
2023-03-21T22:20:06.175Z,5.50
2023-03-21T22:22:34.808Z,4.40
2023-03-21T22:25:03.814Z,5.40
2023-03-21T22:27:32.060Z,6.85
2023-03-21T22:30:04.829Z,6.20
2023-03-21T22:32:33.693Z,6.03
2023-03-21T22:35:02.562Z,6.70
2023-03-21T22:37:31.597Z,6.32
2023-03-21T22:39:59.061Z,5.65
2023-03-21T22:42:27.731Z,6.68
2023-03-21T22:44:55.145Z,5.15
2023-03-21T22:47:22.904Z,4.97
2023-03-21T22:50:03.841Z,6.32
2023-03-21T22:52:31.957Z,5.22
2023-03-21T22:54:59.302Z,4.82
2023-03-21T22:57:26.712Z,6.15
2023-03-21T22:59:54.173Z,5.30
2023-03-21T23:02:21.824Z,5.18
2023-03-21T23:04:49.292Z,5.30
2023-03-21T23:07:17.240Z,5.10
2023-03-21T23:09:44.884Z,5.63
2023-03-21T23:12:14.288Z,5.25
2023-03-21T23:14:41.734Z,4.85
2023-03-21T23:17:10.307Z,5.40
2023-03-21T23:19:40.487Z,4.93
2023-03-21T23:22:09.133Z,4.28
2023-03-21T23:24:36.699Z,4.60
2023-03-21T23:27:04.400Z,5.30
2023-03-21T23:29:32.361Z,5.25
2023-03-21T23:31:59.826Z,5.25
2023-03-21T23:34:28.188Z,4.60
2023-03-21T23:36:55.703Z,5.07
2023-03-21T23:39:23.261Z,5.00
2023-03-21T23:41:50.672Z,4.80
2023-03-21T23:44:18.127Z,4.63
2023-03-21T23:46:45.646Z,5.13
2023-03-21T23:49:15.172Z,4.07
2023-03-21T23:51:43.224Z,4.80
2023-03-21T23:54:13.702Z,4.20
2023-03-21T23:56:42.121Z,5.00
2023-03-21T23:59:09.946Z,5.15
